Time;durP1;ratioP1;P1;durP2;ratioP2;P2;SDS_P1;SDS_P2;PMS_P1;PMS_P2;Temp;Humidity;BMP_temperature;BMP_pressure;BME280_temperature;BME280_humidity;BME280_pressure;Samples;Min_cycle;Max_cycle;Signal;HPM_P1;HPM_P2
2020/12/18 00:00:10;;;;;;;43.67;23.30;;;102.50;2227.20;;;;;;5058447;28;20364;-73
2020/12/18 00:02:35;;;;;;;43.22;23.30;;;77.70;2227.20;;;;;;5072821;28;20322;-72
2020/12/18 00:05:01;;;;;;;47.85;25.27;;;77.70;2227.20;;;;;;5074232;28;20068;-71
2020/12/18 00:07:27;;;;;;;37.17;21.27;;;102.40;2227.20;;;;;;5073895;28;20090;-72
2020/12/18 00:09:53;;;;;;;33.10;19.05;;;102.50;2227.20;;;;;;5071791;28;20312;-73
2020/12/18 00:12:20;;;;;;;29.02;17.20;;;102.50;2227.20;;;;;;5073963;28;20424;-73
2020/12/18 00:14:46;;;;;;;25.65;14.88;;;102.40;2227.20;;;;;;5080308;28;20339;-71
2020/12/18 00:17:11;;;;;;;24.15;13.57;;;102.50;2227.20;;;;;;5080605;28;20119;-70
2020/12/18 00:19:38;;;;;;;23.85;12.70;;;77.70;2227.20;;;;;;5080562;28;20028;-71
2020/12/18 00:22:04;;;;;;;19.88;11.48;;;102.40;2227.20;;;;;;5080203;28;20099;-73
2020/12/18 00:24:29;;;;;;;22.42;12.07;;;102.50;2227.20;;;;;;5080621;28;20371;-73
2020/12/18 00:26:55;;;;;;;24.40;13.20;;;102.40;2227.20;;;;;;5080311;28;20081;-73
2020/12/18 00:29:21;;;;;;;23.58;11.23;;;102.70;2227.20;;;;;;5079965;28;20058;-72
2020/12/18 00:31:47;;;;;;;22.95;13.98;;;102.60;2227.20;;;;;;5080036;28;20024;-73
2020/12/18 00:34:13;;;;;;;23.25;13.07;;;103.00;2227.20;;;;;;5080201;28;20029;-70
2020/12/18 00:36:39;;;;;;;25.50;14.10;;;103.20;2227.20;;;;;;5080484;28;20027;-71
2020/12/18 00:39:06;;;;;;;29.98;16.02;;;103.10;2227.20;;;;;;5080443;28;20029;-72
2020/12/18 00:41:32;;;;;;;23.88;14.38;;;102.90;2227.20;;;;;;5080128;28;20053;-70
2020/12/18 00:43:58;;;;;;;28.88;15.70;;;102.80;2227.20;;;;;;5080071;28;20110;-70
2020/12/18 00:46:24;;;;;;;33.50;17.98;;;102.80;2227.20;;;;;;5079663;28;20439;-72
2020/12/18 00:48:50;;;;;;;33.20;18.90;;;102.60;2227.20;;;;;;5079747;28;20020;-72
2020/12/18 00:51:20;;;;;;;34.78;19.02;;;103.00;2227.20;;;;;;5079661;28;20032;-70
2020/12/18 00:53:46;;;;;;;37.50;19.60;;;103.10;2227.20;;;;;;5079364;28;20313;-71
2020/12/18 00:56:12;;;;;;;40.42;22.77;;;103.10;2227.20;;;;;;5079561;28;20420;-71
2020/12/18 00:58:43;;;;;;;36.47;22.00;;;102.70;2227.20;;;;;;5079801;28;20028;-70
2020/12/18 01:01:09;;;;;;;76.88;34.55;;;102.70;2227.20;;;;;;5079825;28;20020;-71
2020/12/18 01:03:35;;;;;;;68.25;31.58;;;102.50;2227.20;;;;;;5079446;28;20309;-72
2020/12/18 01:06:11;;;;;;;96.93;40.97;;;102.40;2227.20;;;;;;5079489;28;20056;-70
2020/12/18 01:08:37;;;;;;;233.05;51.58;;;102.60;2227.20;;;;;;5079942;28;20025;-70
2020/12/18 01:11:06;;;;;;;241.68;42.47;;;77.70;2227.20;;;;;;5079293;28;20063;-72
2020/12/18 01:13:32;;;;;;;254.07;44.72;;;77.60;2227.20;;;;;;5079804;28;20425;-72
2020/12/18 01:15:58;;;;;;;258.67;41.17;;;77.60;2227.20;;;;;;5079185;28;20071;-71
2020/12/18 01:18:25;;;;;;;171.85;41.38;;;77.50;2227.20;;;;;;5079132;28;20028;-71
2020/12/18 01:20:51;;;;;;;143.48;40.05;;;77.70;2227.20;;;;;;5079090;28;20035;-72
2020/12/18 01:23:17;;;;;;;168.88;39.92;;;102.40;2227.20;;;;;;5079047;28;20062;-71
2020/12/18 01:25:43;;;;;;;175.15;41.33;;;102.40;2227.20;;;;;;5079021;28;20052;-71
2020/12/18 01:28:09;;;;;;;178.43;36.45;;;77.70;2227.20;;;;;;5079277;28;20021;-72
2020/12/18 01:30:35;;;;;;;124.63;35.10;;;77.60;2227.20;;;;;;5078899;28;20029;-71
2020/12/18 01:33:01;;;;;;;207.48;37.50;;;77.60;2227.20;;;;;;5079493;28;20103;-70
2020/12/18 01:35:26;;;;;;;133.73;34.20;;;77.70;2227.20;;;;;;5079032;28;20435;-71
2020/12/18 01:37:53;;;;;;;175.82;38.13;;;102.50;2227.20;;;;;;5078838;28;20074;-72
2020/12/18 01:40:19;;;;;;;148.82;36.45;;;102.50;2227.20;;;;;;5078733;28;20432;-71
2020/12/18 01:42:44;;;;;;;169.77;45.70;;;102.50;2227.20;;;;;;5079039;28;20031;-71
2020/12/18 01:45:10;;;;;;;151.18;42.00;;;102.50;2227.20;;;;;;5078689;28;20111;-71
2020/12/18 01:47:36;;;;;;;155.75;42.17;;;102.70;2227.20;;;;;;5078669;28;20028;-73
2020/12/18 01:50:03;;;;;;;152.75;40.30;;;102.60;2227.20;;;;;;5078857;28;20059;-71
2020/12/18 01:52:31;;;;;;;148.18;38.45;;;102.60;2227.20;;;;;;5078870;28;20025;-71
2020/12/18 01:55:04;;;;;;;97.20;34.08;;;102.50;2227.20;;;;;;5078969;28;20036;-74
2020/12/18 01:57:32;;;;;;;131.70;33.97;;;102.50;2227.20;;;;;;5078453;28;20181;-71
2020/12/18 02:00:00;;;;;;;92.38;30.70;;;102.40;2227.20;;;;;;5078143;28;20073;-69
2020/12/18 02:02:26;;;;;;;91.93;31.67;;;77.60;2227.20;;;;;;5078583;28;20296;-72
2020/12/18 02:04:52;;;;;;;98.72;30.17;;;102.40;2227.20;;;;;;5077965;28;20048;-70
2020/12/18 02:07:24;;;;;;;84.82;31.80;;;102.50;2227.20;;;;;;5078706;28;20035;-71
2020/12/18 02:09:50;;;;;;;77.68;31.02;;;102.50;2227.20;;;;;;5078756;28;20020;-70
2020/12/18 02:12:17;;;;;;;67.15;28.23;;;102.70;2227.20;;;;;;5078154;28;20090;-71
2020/12/18 02:14:46;;;;;;;96.10;31.70;;;102.70;2227.20;;;;;;5078255;28;20025;-71
2020/12/18 02:17:12;;;;;;;95.53;31.77;;;102.70;2227.20;;;;;;5078282;28;20050;-70
2020/12/18 02:19:42;;;;;;;95.68;32.25;;;102.60;2227.20;;;;;;5078246;28;20024;-70
2020/12/18 02:22:15;;;;;;;104.82;34.83;;;102.50;2227.20;;;;;;5077588;28;20457;-71
2020/12/18 02:24:49;;;;;;;90.55;33.78;;;77.70;2227.20;;;;;;5078401;28;20032;-71
2020/12/18 02:27:16;;;;;;;99.43;34.33;;;77.60;2227.20;;;;;;5077828;28;20059;-71
2020/12/18 02:29:42;;;;;;;108.75;36.03;;;102.40;2227.20;;;;;;5078320;28;20028;-72
2020/12/18 02:32:08;;;;;;;108.00;36.35;;;102.60;2227.20;;;;;;5077986;28;20074;-69
2020/12/18 02:34:34;;;;;;;117.25;36.58;;;102.70;2227.20;;;;;;5077125;28;20039;-73
2020/12/18 02:37:01;;;;;;;150.15;34.28;;;102.60;2227.20;;;;;;5078191;28;20043;-70
2020/12/18 02:39:27;;;;;;;172.75;35.60;;;102.50;2227.20;;;;;;5077868;28;20025;-72
2020/12/18 02:41:53;;;;;;;100.65;30.33;;;102.70;2227.20;;;;;;5077563;28;20016;-72
2020/12/18 02:44:19;;;;;;;123.47;30.88;;;102.60;2227.20;;;;;;5077813;28;20107;-71
2020/12/18 02:46:47;;;;;;;112.60;30.60;;;102.80;2227.20;;;;;;5077714;28;20028;-72
2020/12/18 02:49:13;;;;;;;81.45;27.95;;;102.90;2227.20;;;;;;5077457;28;20028;-71
2020/12/18 02:51:40;;;;;;;131.15;27.90;;;102.70;2227.20;;;;;;5077633;28;20126;-71
2020/12/18 02:54:05;;;;;;;96.38;26.48;;;102.70;2227.20;;;;;;5077662;28;20028;-70
2020/12/18 02:56:31;;;;;;;108.80;25.42;;;102.70;2227.20;;;;;;5077730;28;20374;-71
2020/12/18 02:58:57;;;;;;;90.55;25.15;;;102.50;2227.20;;;;;;5077575;28;20032;-71
2020/12/18 03:01:23;;;;;;;62.45;26.10;;;102.60;2227.20;;;;;;5077492;28;20031;-73
2020/12/18 03:03:49;;;;;;;73.35;24.08;;;102.60;2227.20;;;;;;5076973;28;20028;-70
2020/12/18 03:06:15;;;;;;;62.55;23.48;;;102.80;2227.20;;;;;;5077193;28;20027;-73
2020/12/18 03:08:41;;;;;;;68.38;25.08;;;102.70;2227.20;;;;;;5077418;28;20028;-71
2020/12/18 03:11:07;;;;;;;90.20;24.13;;;102.50;2227.20;;;;;;5077375;28;20024;-72
2020/12/18 03:13:33;;;;;;;65.38;24.17;;;102.80;2227.20;;;;;;5077351;28;20024;-71
2020/12/18 03:15:59;;;;;;;60.65;23.30;;;102.70;2227.20;;;;;;5077223;28;20024;-71
2020/12/18 03:18:25;;;;;;;102.38;25.17;;;102.90;2227.20;;;;;;5077577;28;20029;-72
2020/12/18 03:20:50;;;;;;;109.65;23.73;;;103.00;2227.20;;;;;;5077239;28;20432;-72
2020/12/18 03:23:16;;;;;;;93.80;23.75;;;102.70;2227.20;;;;;;5077276;28;20066;-70
2020/12/18 03:25:43;;;;;;;94.93;22.73;;;102.70;2227.20;;;;;;5077490;28;20031;-72
2020/12/18 03:28:09;;;;;;;104.82;24.08;;;102.60;2227.20;;;;;;5077066;28;20036;-71
2020/12/18 03:30:35;;;;;;;87.95;21.30;;;102.70;2227.20;;;;;;5077139;28;20028;-70
2020/12/18 03:33:01;;;;;;;77.60;20.90;;;102.70;2227.20;;;;;;5077386;28;20028;-71
2020/12/18 03:35:27;;;;;;;101.22;20.20;;;102.60;2227.20;;;;;;5076777;28;20032;-72
2020/12/18 03:37:53;;;;;;;52.63;18.50;;;102.60;2227.20;;;;;;5077096;28;20099;-73
2020/12/18 03:40:20;;;;;;;85.03;19.55;;;102.80;2227.20;;;;;;5077094;28;20024;-71
2020/12/18 03:42:46;;;;;;;54.08;17.38;;;102.90;2227.20;;;;;;5077028;28;20416;-72
2020/12/18 03:45:11;;;;;;;67.95;18.40;;;103.00;2227.20;;;;;;5077086;28;20032;-72
2020/12/18 03:47:37;;;;;;;73.07;17.52;;;102.50;2227.20;;;;;;5080589;28;20024;-72
2020/12/18 03:50:06;;;;;;;71.80;18.30;;;77.70;2227.20;;;;;;5080885;28;20323;-71
2020/12/18 03:52:33;;;;;;;71.57;17.50;;;102.40;2227.20;;;;;;5081431;28;20042;-70
2020/12/18 03:54:58;;;;;;;58.20;18.02;;;77.60;2227.20;;;;;;5081268;28;20377;-73
2020/12/18 03:57:25;;;;;;;72.03;17.50;;;77.60;2227.20;;;;;;5080458;28;20021;-71
2020/12/18 03:59:51;;;;;;;69.45;19.38;;;102.40;2227.20;;;;;;5080967;28;20103;-72
2020/12/18 04:02:17;;;;;;;64.22;18.27;;;102.50;2227.20;;;;;;5081186;28;20105;-72
2020/12/18 04:04:43;;;;;;;82.07;19.42;;;102.70;2227.20;;;;;;5080056;28;20412;-70
2020/12/18 04:07:14;;;;;;;66.85;17.33;;;102.90;2227.20;;;;;;5080447;28;20020;-71
2020/12/18 04:09:44;;;;;;;74.90;17.98;;;102.90;2227.20;;;;;;5080839;28;20025;-72
2020/12/18 04:12:11;;;;;;;40.85;16.25;;;103.00;2227.20;;;;;;5080187;28;20423;-71
2020/12/18 04:14:37;;;;;;;44.10;14.35;;;103.00;2227.20;;;;;;5062401;28;20033;-70
2020/12/18 04:17:03;;;;;;;33.90;15.13;;;103.10;2227.20;;;;;;5080894;28;20024;-70
2020/12/18 04:19:29;;;;;;;48.45;20.50;;;103.00;2227.20;;;;;;5080314;28;20016;-70
2020/12/18 04:21:56;;;;;;;40.63;18.23;;;102.90;2227.20;;;;;;5080543;28;20062;-72
2020/12/18 04:24:21;;;;;;;68.03;19.73;;;102.80;2227.20;;;;;;5080764;28;20040;-72
2020/12/18 04:26:47;;;;;;;57.78;19.83;;;102.90;2227.20;;;;;;5080421;28;20071;-72
2020/12/18 04:29:14;;;;;;;84.63;22.02;;;102.70;2227.20;;;;;;5080690;28;20024;-73
2020/12/18 04:31:40;;;;;;;43.55;19.45;;;102.40;2227.20;;;;;;5079935;28;20112;-72
2020/12/18 04:34:06;;;;;;;78.10;20.38;;;102.60;2227.20;;;;;;5080545;28;20115;-72
2020/12/18 04:36:32;;;;;;;50.22;18.65;;;102.40;2227.20;;;;;;5079830;28;20036;-70
2020/12/18 04:38:58;;;;;;;100.45;32.55;;;102.60;2227.20;;;;;;5080247;28;20034;-71
2020/12/18 04:41:27;;;;;;;142.13;21.77;;;102.80;2227.20;;;;;;5080078;28;20067;-72
2020/12/18 04:43:55;;;;;;;173.32;27.33;;;102.80;2227.20;;;;;;5080397;28;20027;-71
2020/12/18 04:46:22;;;;;;;198.52;28.05;;;102.70;2227.20;;;;;;5080068;28;20335;-70
2020/12/18 04:48:49;;;;;;;170.02;28.10;;;77.70;2227.20;;;;;;5079969;28;20436;-70
2020/12/18 04:51:21;;;;;;;109.40;21.30;;;77.60;2227.20;;;;;;5079742;28;20052;-72
2020/12/18 04:53:52;;;;;;;96.63;23.42;;;77.20;2227.20;;;;;;5079638;28;20023;-72
2020/12/18 04:56:27;;;;;;;208.32;28.88;;;77.30;2227.20;;;;;;5079524;28;20379;-73
2020/12/18 04:58:54;;;;;;;118.40;28.00;;;77.40;2227.20;;;;;;5079710;28;20024;-70
2020/12/18 05:01:22;;;;;;;94.57;22.83;;;77.10;2227.20;;;;;;5079804;28;20024;-70
2020/12/18 05:03:49;;;;;;;162.97;28.23;;;77.10;2227.20;;;;;;5079565;28;20032;-70
2020/12/18 05:06:15;;;;;;;257.52;27.63;;;76.90;2227.20;;;;;;5080077;28;20024;-71
2020/12/18 05:08:43;;;;;;;201.57;28.40;;;76.80;2227.20;;;;;;5079650;28;20025;-71
2020/12/18 05:11:26;;;;;;;184.32;27.75;;;77.10;2227.20;;;;;;5079621;28;20104;-72
2020/12/18 05:13:53;;;;;;;185.75;28.52;;;77.10;2227.20;;;;;;5079589;28;20025;-73
2020/12/18 05:16:21;;;;;;;275.13;30.67;;;77.20;2227.20;;;;;;5079108;28;20043;-72
2020/12/18 05:18:48;;;;;;;177.68;26.83;;;77.30;2227.20;;;;;;5079501;28;20073;-72
2020/12/18 05:21:14;;;;;;;260.40;30.55;;;77.10;2227.20;;;;;;5078859;28;20027;-71
2020/12/18 05:23:42;;;;;;;253.00;34.70;;;77.40;2227.20;;;;;;5079139;28;20032;-71
2020/12/18 05:26:09;;;;;;;133.48;28.00;;;77.30;2227.20;;;;;;5079358;28;20058;-70
2020/12/18 05:28:44;;;;;;;208.27;31.27;;;77.50;2227.20;;;;;;5078719;28;20027;-73
2020/12/18 05:31:15;;;;;;;191.25;28.60;;;77.50;2227.20;;;;;;5079642;28;20023;-70
2020/12/18 05:33:42;;;;;;;241.48;27.70;;;77.60;2227.20;;;;;;5079595;28;20024;-73
2020/12/18 05:36:09;;;;;;;190.82;26.15;;;77.60;2227.20;;;;;;5079068;28;20067;-71
2020/12/18 05:38:37;;;;;;;288.67;31.88;;;77.40;2227.20;;;;;;5079158;28;20024;-70
2020/12/18 05:41:04;;;;;;;109.70;25.05;;;77.30;2227.20;;;;;;5079076;28;20025;-71
2020/12/18 05:43:39;;;;;;;57.72;21.48;;;77.60;2227.20;;;;;;5079059;28;20024;-71
2020/12/18 05:46:23;;;;;;;66.88;21.88;;;102.40;2227.20;;;;;;5078978;28;20063;-72
2020/12/18 05:48:55;;;;;;;79.97;27.98;;;102.60;2227.20;;;;;;5078934;28;20407;-71
2020/12/18 05:51:39;;;;;;;174.90;87.97;;;102.70;2227.20;;;;;;5078801;28;20028;-71
2020/12/18 05:54:14;;;;;;;256.13;136.85;;;102.60;2227.20;;;;;;5079344;28;20070;-72
2020/12/18 05:56:43;;;;;;;284.77;130.18;;;102.60;2227.20;;;;;;5078654;28;20342;-70
2020/12/18 05:59:13;;;;;;;126.63;48.58;;;102.60;2227.20;;;;;;5078175;28;20025;-71
2020/12/18 06:01:50;;;;;;;75.78;21.67;;;102.80;2227.20;;;;;;5078033;28;20351;-72
2020/12/18 06:04:25;;;;;;;87.00;23.75;;;102.60;2227.20;;;;;;5077946;28;20455;-71
2020/12/18 06:06:53;;;;;;;69.75;28.08;;;102.70;2227.20;;;;;;5078594;28;20074;-72
2020/12/18 06:09:21;;;;;;;94.68;32.28;;;102.90;2227.20;;;;;;5077893;28;20025;-71
2020/12/18 06:11:48;;;;;;;150.52;60.15;;;102.90;2227.20;;;;;;5078220;28;20025;-74
2020/12/18 06:14:17;;;;;;;82.38;33.53;;;102.90;2227.20;;;;;;5078351;28;20031;-70
2020/12/18 06:16:47;;;;;;;70.55;26.50;;;102.80;2227.20;;;;;;5078090;28;20428;-71
2020/12/18 06:19:15;;;;;;;57.33;24.20;;;102.90;2227.20;;;;;;5078042;28;20373;-73
2020/12/18 06:21:53;;;;;;;70.43;22.65;;;103.00;2227.20;;;;;;5078268;28;20102;-71
2020/12/18 06:24:19;;;;;;;82.78;21.42;;;102.90;2227.20;;;;;;5077960;28;20035;-72
2020/12/18 06:26:46;;;;;;;70.32;23.40;;;102.80;2227.20;;;;;;5078392;28;20025;-71
2020/12/18 06:29:17;;;;;;;60.90;21.52;;;102.70;2227.20;;;;;;5078282;28;20074;-70
2020/12/18 06:31:43;;;;;;;58.95;21.63;;;102.90;2227.20;;;;;;5077542;28;20331;-73
2020/12/18 06:34:10;;;;;;;69.18;24.33;;;102.80;2227.20;;;;;;5077470;28;20107;-70
2020/12/18 06:36:52;;;;;;;54.50;20.02;;;103.00;2227.20;;;;;;5077574;28;20082;-71
2020/12/18 06:39:32;;;;;;;44.55;19.90;;;102.80;2227.20;;;;;;5077667;28;20047;-70
2020/12/18 06:42:14;;;;;;;41.42;20.55;;;103.10;2227.20;;;;;;5078168;28;20024;-70
2020/12/18 06:44:52;;;;;;;37.55;19.52;;;102.80;2227.20;;;;;;5077840;28;20479;-71
2020/12/18 06:47:29;;;;;;;37.63;17.58;;;103.10;2227.20;;;;;;5078054;28;20028;-71
2020/12/18 06:49:59;;;;;;;41.53;19.33;;;103.00;2227.20;;;;;;5078108;28;20119;-71
2020/12/18 06:52:56;;;;;;;87.97;43.80;;;103.10;2227.20;;;;;;5077635;28;20369;-73
2020/12/18 06:55:29;;;;;;;54.58;28.30;;;103.20;2227.20;;;;;;5077896;28;20035;-71
2020/12/18 06:58:09;;;;;;;73.93;37.35;;;103.20;2227.20;;;;;;5074310;28;20024;-72
2020/12/18 07:00:44;;;;;;;45.50;21.50;;;103.10;2227.20;;;;;;5070998;28;20455;-69
2020/12/18 07:03:32;;;;;;;42.63;23.45;;;103.20;2227.20;;;;;;5056747;28;20432;-70
2020/12/18 07:06:02;;;;;;;44.80;21.73;;;103.20;2227.20;;;;;;5065430;28;20060;-70
2020/12/18 07:08:33;;;;;;;60.42;22.73;;;103.30;2227.20;;;;;;5077215;28;20048;-71
2020/12/18 07:11:03;;;;;;;93.15;22.30;;;103.20;2227.20;;;;;;5077174;28;20375;-71
2020/12/18 07:13:30;;;;;;;82.45;20.45;;;103.10;2227.20;;;;;;5076157;28;20138;-71
2020/12/18 07:16:02;;;;;;;88.85;21.77;;;103.20;2227.20;;;;;;5077126;28;20028;-71
2020/12/18 07:18:37;;;;;;;83.63;22.23;;;103.30;2227.20;;;;;;5074098;28;20048;-71
2020/12/18 07:21:11;;;;;;;57.45;20.75;;;103.00;2227.20;;;;;;5067674;28;20021;-71
2020/12/18 07:23:41;;;;;;;50.33;19.10;;;103.10;2227.20;;;;;;5076319;28;20374;-72
2020/12/18 07:26:08;;;;;;;54.70;19.85;;;103.20;2227.20;;;;;;5077170;28;20028;-71
2020/12/18 07:28:39;;;;;;;49.63;20.42;;;103.20;2227.20;;;;;;5073950;28;20421;-71
2020/12/18 07:31:25;;;;;;;69.97;21.00;;;103.10;2227.20;;;;;;5066892;28;20075;-71
2020/12/18 07:33:58;;;;;;;50.00;20.52;;;103.00;2227.20;;;;;;5071923;28;20030;-70
2020/12/18 07:36:26;;;;;;;52.22;23.20;;;103.30;2227.20;;;;;;5071986;28;20094;-71
2020/12/18 07:38:57;;;;;;;68.55;31.45;;;128.10;2252.80;;;;;;5073723;28;20107;-70
2020/12/18 07:41:29;;;;;;;76.13;33.80;;;128.10;2252.80;;;;;;5056051;28;20033;-70
2020/12/18 07:44:06;;;;;;;53.28;25.88;;;128.10;2252.80;;;;;;5057172;28;20029;-72
2020/12/18 07:46:34;;;;;;;47.83;22.92;;;128.40;2252.80;;;;;;5057117;28;20079;-70
2020/12/18 07:49:10;;;;;;;49.25;23.02;;;128.20;2252.80;;;;;;5056709;28;20025;-70
2020/12/18 07:51:40;;;;;;;50.33;22.60;;;128.40;2252.80;;;;;;5056906;28;20144;-70
2020/12/18 07:54:07;;;;;;;83.07;39.25;;;128.50;2252.80;;;;;;5057026;28;20063;-71
2020/12/18 07:56:33;;;;;;;56.28;28.58;;;128.50;2252.80;;;;;;5058087;28;20028;-70
2020/12/18 07:59:03;;;;;;;65.57;31.05;;;128.60;2252.80;;;;;;5073660;28;20028;-70
2020/12/18 08:01:31;;;;;;;61.47;25.92;;;128.20;2252.80;;;;;;5060528;28;20333;-71
2020/12/18 08:04:11;;;;;;;53.10;25.80;;;128.30;2252.80;;;;;;5075454;28;20024;-73
2020/12/18 08:06:38;;;;;;;76.00;34.53;;;128.10;2252.80;;;;;;5075940;28;20043;-71
2020/12/18 08:09:13;;;;;;;151.82;60.75;;;128.40;2252.80;;;;;;5075928;28;20028;-69
2020/12/18 08:11:45;;;;;;;221.40;91.25;;;128.30;2252.80;;;;;;5076692;28;20032;-69
2020/12/18 08:14:12;;;;;;;336.95;138.60;;;128.10;2252.80;;;;;;5075897;28;20103;-71
2020/12/18 08:16:38;;;;;;;222.82;102.75;;;128.30;2252.80;;;;;;5075904;28;20585;-70
2020/12/18 08:19:07;;;;;;;109.55;56.97;;;128.40;2252.80;;;;;;5075826;28;20467;-71
2020/12/18 08:21:41;;;;;;;64.57;29.88;;;128.60;2252.80;;;;;;5076328;28;20420;-72
2020/12/18 08:24:25;;;;;;;56.78;30.52;;;128.70;2252.80;;;;;;5076278;28;20028;-72
2020/12/18 08:27:04;;;;;;;60.45;28.95;;;128.80;2252.80;;;;;;5076648;28;20035;-72
2020/12/18 08:29:34;;;;;;;53.85;32.65;;;128.60;2252.80;;;;;;5076439;28;20066;-69
2020/12/18 08:32:02;;;;;;;47.20;25.42;;;128.50;2252.80;;;;;;5077133;28;20016;-68
2020/12/18 08:34:30;;;;;;;94.03;38.38;;;128.60;2252.80;;;;;;5080350;28;20111;-70
2020/12/18 08:36:57;;;;;;;49.72;23.77;;;128.80;2252.80;;;;;;5079831;28;20170;-70
2020/12/18 08:39:27;;;;;;;46.03;23.45;;;128.90;2252.80;;;;;;5080184;28;20383;-72
2020/12/18 08:41:54;;;;;;;61.22;25.50;;;128.70;2252.80;;;;;;5079538;28;20025;-73
2020/12/18 08:44:39;;;;;;;45.42;20.25;;;128.90;2252.80;;;;;;5079965;28;20058;-72
2020/12/18 08:47:28;;;;;;;45.80;22.50;;;153.60;2252.80;;;;;;5080303;28;20024;-71
2020/12/18 08:49:56;;;;;;;70.65;31.80;;;128.90;2252.80;;;;;;5080158;28;20054;-72
2020/12/18 08:52:29;;;;;;;61.47;24.92;;;128.90;2252.80;;;;;;5079578;28;20036;-72
2020/12/18 08:55:06;;;;;;;42.92;20.73;;;153.80;2252.80;;;;;;5079681;28;20028;-72
2020/12/18 08:57:36;;;;;;;47.83;21.95;;;153.80;2252.80;;;;;;5077405;28;20032;-72
2020/12/18 09:00:14;;;;;;;48.03;23.33;;;153.60;2252.80;;;;;;5060072;28;20028;-71
2020/12/18 09:02:49;;;;;;;54.13;28.13;;;128.90;2252.80;;;;;;5059888;28;20029;-70
2020/12/18 09:05:24;;;;;;;44.42;22.70;;;128.80;2252.80;;;;;;5059439;28;20056;-70
2020/12/18 09:08:00;;;;;;;48.10;22.50;;;128.90;2252.80;;;;;;5059749;28;20044;-72
2020/12/18 09:10:36;;;;;;;42.35;21.40;;;153.70;2252.80;;;;;;5059808;28;20086;-72
2020/12/18 09:13:28;;;;;;;46.13;21.75;;;153.90;2252.80;;;;;;5059456;28;20036;-71
2020/12/18 09:16:09;;;;;;;41.30;20.55;;;153.70;2252.80;;;;;;5059634;28;20032;-72
2020/12/18 09:18:37;;;;;;;50.00;23.83;;;153.80;2252.80;;;;;;5059617;28;20067;-71
2020/12/18 09:21:14;;;;;;;51.70;23.85;;;154.10;2252.80;;;;;;5059422;28;20107;-73
2020/12/18 09:23:48;;;;;;;62.70;26.48;;;153.90;2252.80;;;;;;5059343;28;20025;-71
2020/12/18 09:26:29;;;;;;;44.33;23.15;;;154.10;2252.80;;;;;;5059291;28;20115;-73
2020/12/18 09:28:56;;;;;;;44.10;23.27;;;153.80;2252.80;;;;;;5062739;28;20024;-71
2020/12/18 09:31:23;;;;;;;51.10;27.50;;;153.80;2252.80;;;;;;5078712;28;20016;-69
2020/12/18 09:33:49;;;;;;;70.40;31.42;;;153.90;2252.80;;;;;;5078159;28;20029;-71
2020/12/18 09:36:16;;;;;;;47.35;22.48;;;153.80;2252.80;;;;;;5079248;28;20438;-70
2020/12/18 09:38:44;;;;;;;84.82;40.65;;;153.80;2252.80;;;;;;5078998;28;20480;-70
2020/12/18 09:41:20;;;;;;;67.30;36.93;;;154.10;2252.80;;;;;;5078442;28;20029;-69
2020/12/18 09:43:46;;;;;;;58.35;28.92;;;154.00;2252.80;;;;;;5077970;28;20438;-71
2020/12/18 09:46:12;;;;;;;46.83;23.30;;;154.00;2252.80;;;;;;5078578;28;20036;-71
2020/12/18 09:48:44;;;;;;;46.65;23.35;;;154.10;2252.80;;;;;;5078519;28;20424;-71
2020/12/18 09:51:10;;;;;;;131.77;68.05;;;154.20;2252.80;;;;;;5079012;28;20107;-70
2020/12/18 09:53:36;;;;;;;143.60;68.68;;;154.00;2252.80;;;;;;5078460;28;20174;-71
2020/12/18 09:56:03;;;;;;;70.07;34.38;;;154.40;2227.20;;;;;;5078349;28;20486;-69
2020/12/18 09:58:29;;;;;;;62.00;30.15;;;154.20;2252.80;;;;;;5078578;28;20047;-69
2020/12/18 10:00:54;;;;;;;96.68;47.15;;;154.30;2252.80;;;;;;5078259;28;20411;-71
2020/12/18 10:03:20;;;;;;;47.00;23.10;;;154.30;2252.80;;;;;;5078544;28;20066;-72
2020/12/18 10:05:47;;;;;;;41.75;20.88;;;154.40;2227.20;;;;;;5078873;28;20410;-72
2020/12/18 10:08:13;;;;;;;68.78;38.53;;;154.40;2227.20;;;;;;5078136;28;20051;-70
2020/12/18 10:10:39;;;;;;;48.47;23.92;;;179.30;2201.60;;;;;;5077722;28;20404;-71
2020/12/18 10:13:05;;;;;;;89.60;47.15;;;179.30;2201.60;;;;;;5077934;28;20036;-74
2020/12/18 10:15:31;;;;;;;57.58;31.58;;;179.30;2201.60;;;;;;5077712;28;20028;-73
2020/12/18 10:17:57;;;;;;;49.85;28.98;;;179.30;2201.60;;;;;;5078448;28;20039;-73
2020/12/18 10:20:23;;;;;;;44.00;22.65;;;179.30;2201.60;;;;;;5078065;28;20324;-72
2020/12/18 10:22:49;;;;;;;40.38;19.95;;;154.50;2227.20;;;;;;5078097;28;20035;-72
2020/12/18 10:25:15;;;;;;;43.63;22.38;;;179.30;2201.60;;;;;;5077669;28;20025;-71
2020/12/18 10:27:42;;;;;;;40.88;22.48;;;179.20;2227.20;;;;;;5077862;28;20025;-73
2020/12/18 10:30:08;;;;;;;38.13;22.27;;;154.50;2252.80;;;;;;5077991;28;20174;-72
2020/12/18 10:32:34;;;;;;;43.13;23.83;;;154.50;2252.80;;;;;;5077898;28;20028;-71
2020/12/18 10:35:01;;;;;;;44.90;23.33;;;179.40;2227.20;;;;;;5076720;28;20516;-71
2020/12/18 10:37:27;;;;;;;48.85;26.02;;;154.50;2252.80;;;;;;5076671;28;20032;-71
2020/12/18 10:39:54;;;;;;;41.10;23.55;;;154.50;2252.80;;;;;;5077693;28;20120;-71
2020/12/18 10:42:20;;;;;;;36.80;20.55;;;179.20;2252.80;;;;;;5077755;28;20025;-72
2020/12/18 10:44:46;;;;;;;41.58;22.10;;;179.30;2227.20;;;;;;5076177;28;20020;-72
2020/12/18 10:47:12;;;;;;;38.35;20.50;;;154.40;2252.80;;;;;;5066865;28;20029;-71
2020/12/18 10:49:38;;;;;;;40.15;21.55;;;179.20;2252.80;;;;;;5072390;28;20620;-72
2020/12/18 10:52:05;;;;;;;41.67;23.40;;;154.30;2252.80;;;;;;5075745;28;20424;-73
2020/12/18 10:54:31;;;;;;;44.88;22.95;;;154.50;2252.80;;;;;;5075278;28;20038;-73
2020/12/18 10:56:58;;;;;;;43.78;22.95;;;154.30;2252.80;;;;;;5075308;28;20032;-71
2020/12/18 10:59:29;;;;;;;43.83;22.60;;;154.50;2252.80;;;;;;5057897;28;20028;-70
2020/12/18 11:01:56;;;;;;;49.92;24.02;;;154.30;2252.80;;;;;;5062631;28;20103;-72
2020/12/18 11:04:22;;;;;;;43.80;23.77;;;154.50;2252.80;;;;;;5058816;28;20045;-73
2020/12/18 11:06:48;;;;;;;54.95;25.42;;;179.30;2252.80;;;;;;5066582;28;20036;-71
2020/12/18 11:09:16;;;;;;;52.60;27.52;;;179.30;2252.80;;;;;;5076318;28;20089;-70
2020/12/18 11:11:42;;;;;;;57.95;28.00;;;179.40;2252.80;;;;;;5076299;28;20028;-69
2020/12/18 11:14:11;;;;;;;47.25;24.05;;;179.30;2252.80;;;;;;5077811;28;20060;-69
2020/12/18 11:16:37;;;;;;;54.45;27.13;;;179.40;2227.20;;;;;;5077103;28;20033;-70
2020/12/18 11:19:04;;;;;;;49.72;26.88;;;179.30;2252.80;;;;;;5077170;28;20085;-70
2020/12/18 11:21:31;;;;;;;50.65;25.38;;;179.20;2252.80;;;;;;5077225;28;20031;-72
2020/12/18 11:23:57;;;;;;;55.88;27.55;;;179.30;2252.80;;;;;;5077135;28;20408;-70
2020/12/18 11:26:24;;;;;;;53.13;25.20;;;179.20;2252.80;;;;;;5076159;28;20382;-72
2020/12/18 11:28:51;;;;;;;54.17;27.27;;;179.20;2252.80;;;;;;5076899;28;20024;-71
2020/12/18 11:31:17;;;;;;;56.30;26.30;;;179.30;2252.80;;;;;;5075734;28;20039;-72
2020/12/18 11:33:43;;;;;;;52.53;25.98;;;179.50;2252.80;;;;;;5074800;28;20070;-69
2020/12/18 11:36:09;;;;;;;49.67;24.90;;;179.50;2252.80;;;;;;5065175;28;20379;-71
2020/12/18 11:38:34;;;;;;;55.05;26.55;;;179.50;2227.20;;;;;;5056895;28;20025;-71
2020/12/18 11:41:00;;;;;;;60.35;29.35;;;179.40;2227.20;;;;;;5056929;28;20309;-70
2020/12/18 11:43:26;;;;;;;66.50;32.03;;;179.40;2252.80;;;;;;5059429;28;20033;-69
2020/12/18 11:45:52;;;;;;;70.65;32.55;;;179.40;2252.80;;;;;;5076894;28;20033;-70
2020/12/18 11:48:17;;;;;;;69.32;32.92;;;179.40;2252.80;;;;;;5076874;28;20070;-69
2020/12/18 11:50:44;;;;;;;76.32;36.20;;;179.50;2252.80;;;;;;5076847;28;20028;-69
2020/12/18 11:53:10;;;;;;;76.90;34.65;;;179.60;2252.80;;;;;;5075973;28;20052;-70
2020/12/18 11:55:37;;;;;;;67.18;31.98;;;179.50;2252.80;;;;;;5068102;28;20036;-69
2020/12/18 11:58:03;;;;;;;72.40;34.40;;;179.50;2252.80;;;;;;5071915;28;20032;-69
2020/12/18 12:00:28;;;;;;;66.47;31.75;;;179.60;2227.20;;;;;;5056655;28;20025;-71
2020/12/18 12:02:54;;;;;;;69.78;32.35;;;179.70;2227.20;;;;;;5068951;28;20431;-69
2020/12/18 12:05:22;;;;;;;66.90;32.78;;;179.80;2227.20;;;;;;5058390;28;20061;-69